createdAt,value
2022-11-04T00:00:13.296Z,87.47
2022-11-04T00:02:41.020Z,88.13
2022-11-04T00:05:09.158Z,88.64
2022-11-04T00:07:59.634Z,88.75
2022-11-04T00:10:42.429Z,89.13
2022-11-04T00:13:10.394Z,89.46
2022-11-04T00:15:56.000Z,90.75
2022-11-04T00:18:23.578Z,91.03
2022-11-04T00:21:08.439Z,90.88
2022-11-04T00:26:47.591Z,90.92
2022-11-04T00:29:15.222Z,90.48
2022-11-04T00:32:00.337Z,89.77
2022-11-04T00:34:27.868Z,89.98
2022-11-04T00:36:55.423Z,89.76
2022-11-04T00:39:22.937Z,88.52
2022-11-04T00:41:51.802Z,88.22
2022-11-04T00:44:19.288Z,88.04
2022-11-04T00:46:46.847Z,87.87
2022-11-04T00:49:14.448Z,88.41
2022-11-04T00:51:41.982Z,87.01
2022-11-04T00:54:09.584Z,87.64
2022-11-04T00:56:38.467Z,87.31
2022-11-04T00:59:10.383Z,87.12
2022-11-04T01:01:41.687Z,86.95
2022-11-04T01:04:10.329Z,87.30
2022-11-04T01:06:37.853Z,87.75
2022-11-04T01:09:08.082Z,87.48
2022-11-04T01:11:36.029Z,87.92
2022-11-04T01:14:04.202Z,88.18
2022-11-04T01:16:33.473Z,87.86
2022-11-04T01:19:02.752Z,89.12
2022-11-04T01:21:30.415Z,88.88
2022-11-04T01:23:58.010Z,89.88
2022-11-04T01:26:27.266Z,88.85
2022-11-04T01:28:57.049Z,88.84
2022-11-04T01:31:26.685Z,89.43
2022-11-04T01:33:56.622Z,89.03
2022-11-04T01:36:25.389Z,87.80
2022-11-04T01:38:53.165Z,87.41
2022-11-04T01:41:23.176Z,87.38
2022-11-04T01:43:52.404Z,87.58
2022-11-04T01:46:29.045Z,85.89
2022-11-04T01:49:05.035Z,86.23
2022-11-04T01:51:35.610Z,86.34
2022-11-04T01:54:04.762Z,86.32
2022-11-04T01:56:33.357Z,86.34
2022-11-04T01:59:06.331Z,85.94
2022-11-04T02:01:34.199Z,86.52
2022-11-04T02:04:17.156Z,86.52
2022-11-04T02:06:45.322Z,85.97
2022-11-04T02:09:13.665Z,86.31
2022-11-04T02:11:58.746Z,86.21
2022-11-04T02:14:27.144Z,86.09
2022-11-04T02:17:00.377Z,86.22
2022-11-04T02:20:00.510Z,86.53
2022-11-04T02:22:46.216Z,86.94
2022-11-04T02:25:34.366Z,86.84
2022-11-04T02:28:28.702Z,87.31
2022-11-04T02:31:08.731Z,87.44
2022-11-04T02:33:43.387Z,87.80
2022-11-04T02:36:20.048Z,87.87
2022-11-04T02:38:53.368Z,88.90
2022-11-04T02:41:32.045Z,87.94
2022-11-04T02:44:09.834Z,88.93
2022-11-04T02:46:44.112Z,88.79
2022-11-04T02:49:15.863Z,89.14
2022-11-04T02:51:50.310Z,89.32
2022-11-04T02:54:25.164Z,90.00
2022-11-04T02:56:56.502Z,89.73
2022-11-04T02:59:30.943Z,89.38
2022-11-04T03:02:02.216Z,89.31
2022-11-04T03:04:33.520Z,88.72
2022-11-04T03:07:04.623Z,89.03
2022-11-04T03:09:34.243Z,89.18
2022-11-04T03:12:06.826Z,88.00
2022-11-04T03:14:38.671Z,88.38
2022-11-04T03:17:13.198Z,87.26
2022-11-04T03:19:48.510Z,87.37
2022-11-04T03:22:19.822Z,87.90
2022-11-04T03:24:49.110Z,88.43
2022-11-04T03:27:23.468Z,88.25
2022-11-04T03:29:58.849Z,88.85
2022-11-04T03:32:38.503Z,88.81
2022-11-04T03:35:07.242Z,89.94
2022-11-04T03:37:35.351Z,90.54
2022-11-04T03:40:03.623Z,90.66
2022-11-04T03:42:33.094Z,90.46
2022-11-04T03:45:00.842Z,90.77
2022-11-04T03:47:31.541Z,91.52
2022-11-04T03:50:06.101Z,92.17
2022-11-04T03:52:34.180Z,91.52
2022-11-04T03:55:01.728Z,91.83
2022-11-04T03:57:40.354Z,92.11
2022-11-04T04:00:11.822Z,91.97
2022-11-04T04:03:01.881Z,91.76
2022-11-04T04:05:31.745Z,92.14
2022-11-04T04:08:08.469Z,91.09
2022-11-04T04:10:40.721Z,91.26
2022-11-04T04:13:26.359Z,91.10
2022-11-04T04:15:58.625Z,91.00
2022-11-04T04:18:34.946Z,90.79
2022-11-04T04:21:06.374Z,91.65
2022-11-04T04:23:53.905Z,92.20
2022-11-04T04:26:42.050Z,91.98
2022-11-04T04:29:11.471Z,92.18
2022-11-04T04:31:57.464Z,93.13
2022-11-04T04:34:30.387Z,92.61
2022-11-04T04:37:03.078Z,91.68
2022-11-04T04:40:08.826Z,90.96
2022-11-04T04:42:54.693Z,91.13
2022-11-04T04:45:27.735Z,91.42
2022-11-04T04:47:55.510Z,90.85
2022-11-04T04:50:28.614Z,91.59
2022-11-04T04:52:59.192Z,90.75
2022-11-04T04:55:26.851Z,91.19
2022-11-04T04:57:54.363Z,90.67
2022-11-04T05:00:22.225Z,91.68
2022-11-04T05:02:50.099Z,91.57
2022-11-04T05:05:18.883Z,91.36
2022-11-04T05:07:47.795Z,92.54
2022-11-04T05:10:17.089Z,92.86
2022-11-04T05:13:03.026Z,93.91
2022-11-04T05:15:31.995Z,94.40
2022-11-04T05:18:01.263Z,94.46
2022-11-04T05:20:30.186Z,95.00
2022-11-04T05:22:59.062Z,95.98
2022-11-04T05:25:26.616Z,96.42
2022-11-04T05:27:54.187Z,96.39
2022-11-04T05:30:21.712Z,96.38
2022-11-04T05:32:49.230Z,96.62
2022-11-04T05:35:16.820Z,96.88
2022-11-04T05:37:44.346Z,97.55
2022-11-04T05:40:13.650Z,97.26
2022-11-04T05:42:41.482Z,97.87
2022-11-04T05:45:10.050Z,97.88
2022-11-04T05:47:37.618Z,98.28
2022-11-04T05:50:05.743Z,98.39
2022-11-04T05:52:33.492Z,98.80
2022-11-04T05:55:01.071Z,99.35
2022-11-04T05:57:29.954Z,99.24
2022-11-04T05:59:57.522Z,99.71
2022-11-04T06:02:25.146Z,99.68
2022-11-04T06:04:52.694Z,99.67
2022-11-04T06:07:20.215Z,99.80
2022-11-04T06:09:47.738Z,99.50
2022-11-04T06:12:16.650Z,100.00
2022-11-04T06:14:46.109Z,100.00
2022-11-04T06:17:16.336Z,100.00
2022-11-04T06:19:43.903Z,100.00
2022-11-04T06:22:13.202Z,100.00
2022-11-04T06:24:40.905Z,99.77
2022-11-04T06:27:08.768Z,100.00
2022-11-04T06:29:39.872Z,99.79
2022-11-04T06:32:08.919Z,100.00
2022-11-04T06:34:36.480Z,100.00
2022-11-04T06:37:04.186Z,100.00
2022-11-04T06:39:31.770Z,99.65
2022-11-04T06:41:59.667Z,99.63
2022-11-04T06:44:29.107Z,99.04
2022-11-04T06:46:56.804Z,99.25
2022-11-04T06:49:25.770Z,99.23
2022-11-04T06:51:53.663Z,100.00
2022-11-04T06:54:21.239Z,100.00
2022-11-04T06:56:49.118Z,99.43
2022-11-04T06:59:18.979Z,98.30
2022-11-04T07:01:47.204Z,98.78
2022-11-04T07:04:14.963Z,99.43
2022-11-04T07:06:44.948Z,99.48
2022-11-04T07:09:14.001Z,99.53
2022-11-04T07:11:41.984Z,99.65
2022-11-04T07:14:09.906Z,99.58
2022-11-04T07:16:37.537Z,98.52
2022-11-04T07:19:05.347Z,98.43
2022-11-04T07:21:33.047Z,97.21
2022-11-04T07:24:02.335Z,96.21
2022-11-04T07:26:29.929Z,96.55
2022-11-04T07:28:57.970Z,95.84
2022-11-04T07:31:25.473Z,94.65
2022-11-04T07:33:53.017Z,94.46
2022-11-04T07:36:21.164Z,94.41
2022-11-04T07:38:48.787Z,93.73
2022-11-04T07:41:18.388Z,92.77
2022-11-04T07:43:49.553Z,92.46
2022-11-04T07:46:17.436Z,91.70
2022-11-04T07:48:45.309Z,91.39
2022-11-04T07:51:16.220Z,91.42
2022-11-04T07:53:44.275Z,91.41
2022-11-04T07:56:13.632Z,91.20
2022-11-04T07:58:42.558Z,91.20
2022-11-04T08:01:12.677Z,90.85
2022-11-04T08:03:40.590Z,90.82
2022-11-04T08:06:10.494Z,90.49
2022-11-04T08:08:38.590Z,90.45
2022-11-04T08:11:11.485Z,90.34
2022-11-04T08:13:43.498Z,89.36
2022-11-04T08:16:13.898Z,89.11
2022-11-04T08:18:42.911Z,88.88
2022-11-04T08:21:11.232Z,88.80
2022-11-04T08:23:38.834Z,88.49
2022-11-04T08:26:09.526Z,87.79
2022-11-04T08:28:37.750Z,87.35
2022-11-04T08:31:11.246Z,86.57
2022-11-04T08:33:38.623Z,86.49
2022-11-04T08:36:09.163Z,86.30
2022-11-04T08:38:37.067Z,85.82
2022-11-04T08:41:07.322Z,84.90
2022-11-04T08:43:35.253Z,85.11
2022-11-04T08:46:03.848Z,84.59
2022-11-04T08:48:32.715Z,83.57
2022-11-04T08:51:00.272Z,82.66
2022-11-04T08:53:28.306Z,81.96
2022-11-04T08:55:56.020Z,81.89
2022-11-04T08:58:24.662Z,82.43
2022-11-04T09:00:52.291Z,82.00
2022-11-04T09:03:20.024Z,82.15
2022-11-04T09:05:49.106Z,82.01
2022-11-04T09:08:18.667Z,81.96
2022-11-04T09:10:47.715Z,80.45
2022-11-04T09:13:16.601Z,80.85
2022-11-04T09:15:44.524Z,79.91
2022-11-04T09:18:12.218Z,79.12
2022-11-04T09:20:42.022Z,79.96
2022-11-04T09:23:11.290Z,78.81
2022-11-04T09:25:39.210Z,78.86
2022-11-04T09:28:06.998Z,77.43
2022-11-04T09:30:34.700Z,77.23
2022-11-04T09:33:02.248Z,77.84
2022-11-04T09:35:30.265Z,76.75
2022-11-04T09:38:00.479Z,76.55
2022-11-04T09:40:30.111Z,76.89
2022-11-04T09:43:21.650Z,76.08
2022-11-04T09:45:49.190Z,75.47
2022-11-04T09:48:26.420Z,74.62
2022-11-04T09:50:58.816Z,74.76
2022-11-04T09:53:32.223Z,73.97
2022-11-04T09:56:02.516Z,73.18
2022-11-04T09:58:34.067Z,67.09
2022-11-04T10:01:06.689Z,65.70
2022-11-04T10:03:49.159Z,66.39
2022-11-04T10:06:30.533Z,65.75
2022-11-04T10:09:21.195Z,64.63
2022-11-04T10:12:02.019Z,65.29
2022-11-04T10:14:53.665Z,64.16
2022-11-04T10:17:35.154Z,63.26
2022-11-04T10:20:20.571Z,64.02
2022-11-04T10:22:58.314Z,63.30
2022-11-04T10:25:31.343Z,63.86
2022-11-04T10:28:00.840Z,65.22
2022-11-04T10:30:29.271Z,63.89
2022-11-04T10:33:09.478Z,63.78
2022-11-04T10:35:42.856Z,64.83
2022-11-04T10:38:18.379Z,62.41
2022-11-04T10:40:49.262Z,62.93
2022-11-04T10:43:24.281Z,64.19
2022-11-04T10:46:04.566Z,64.77
2022-11-04T10:48:38.787Z,63.54
2022-11-04T10:51:06.797Z,63.90
2022-11-04T10:53:35.999Z,63.32
2022-11-04T10:56:07.934Z,61.91
2022-11-04T10:58:43.679Z,61.63
2022-11-04T11:01:25.527Z,61.82
2022-11-04T11:03:53.346Z,63.23
2022-11-04T11:06:26.510Z,62.01
2022-11-04T11:08:57.749Z,60.45
2022-11-04T11:11:40.553Z,60.86
2022-11-04T11:14:18.930Z,60.67
2022-11-04T11:16:48.031Z,61.23
2022-11-04T11:19:18.921Z,60.82
2022-11-04T11:21:49.598Z,61.61
2022-11-04T11:24:21.969Z,60.53
2022-11-04T11:26:52.601Z,60.53
2022-11-04T11:29:25.097Z,63.02
2022-11-04T11:31:53.756Z,61.81
2022-11-04T11:34:26.352Z,61.92
2022-11-04T11:36:56.075Z,61.50
2022-11-04T11:39:27.960Z,59.85
2022-11-04T11:41:59.311Z,58.86
2022-11-04T11:44:31.708Z,57.10
2022-11-04T11:47:02.839Z,58.47
2022-11-04T11:49:33.750Z,58.75
2022-11-04T11:52:36.893Z,59.52
2022-11-04T11:55:12.951Z,58.13
2022-11-04T12:00:47.060Z,57.40
2022-11-04T12:03:26.950Z,58.41
2022-11-04T12:11:54.594Z,55.57
2022-11-04T12:14:36.299Z,55.44
2022-11-04T12:17:15.699Z,53.60
2022-11-04T12:19:57.444Z,53.92
2022-11-04T12:22:34.062Z,53.04
2022-11-04T12:25:12.303Z,52.64
2022-11-04T12:27:47.490Z,52.06
2022-11-04T12:30:22.317Z,50.02
2022-11-04T12:33:09.878Z,50.63
2022-11-04T12:35:53.549Z,49.57
2022-11-04T12:38:50.235Z,48.11
2022-11-04T12:41:42.233Z,48.44
2022-11-04T12:44:23.767Z,48.81
2022-11-04T12:47:02.418Z,49.15
2022-11-04T12:50:10.513Z,49.40
2022-11-04T12:53:04.870Z,48.65
2022-11-04T12:55:46.947Z,50.27
2022-11-04T12:58:29.810Z,49.86
2022-11-04T13:01:04.927Z,49.25
2022-11-04T13:03:37.496Z,49.90
2022-11-04T13:06:11.525Z,52.84
2022-11-04T13:08:44.393Z,54.25
2022-11-04T13:11:26.491Z,57.84
2022-11-04T13:14:02.316Z,58.06
2022-11-04T13:16:32.565Z,56.51
2022-11-04T13:19:00.715Z,58.31
2022-11-04T13:21:34.253Z,54.81
2022-11-04T13:24:04.776Z,57.10
2022-11-04T13:26:33.059Z,57.62
2022-11-04T13:29:08.884Z,56.28
2022-11-04T13:31:47.898Z,58.27
2022-11-04T13:34:28.511Z,58.95
2022-11-04T13:37:08.030Z,58.48
2022-11-04T13:39:40.825Z,58.95
2022-11-04T13:42:34.784Z,59.09
2022-11-04T13:45:11.083Z,59.37
2022-11-04T13:47:46.630Z,58.74
2022-11-04T13:50:29.585Z,58.64
2022-11-04T13:52:59.611Z,58.00
2022-11-04T13:55:27.254Z,56.44
2022-11-04T13:57:56.860Z,56.64
2022-11-04T14:00:26.945Z,55.77
2022-11-04T14:02:55.027Z,56.90
2022-11-04T14:06:03.018Z,52.67
2022-11-04T14:08:32.865Z,53.01
2022-11-04T14:11:12.738Z,52.70
2022-11-04T14:13:44.745Z,54.14
2022-11-04T14:16:15.902Z,52.20
2022-11-04T14:18:44.712Z,54.72
2022-11-04T14:21:14.500Z,54.63
2022-11-04T14:23:47.110Z,55.00
2022-11-04T14:26:17.239Z,55.67
2022-11-04T14:28:47.896Z,57.32
2022-11-04T14:31:34.963Z,58.62
2022-11-04T14:34:03.359Z,59.76
2022-11-04T14:36:36.272Z,61.87
2022-11-04T14:39:21.203Z,62.01
2022-11-04T14:42:08.330Z,61.50
2022-11-04T14:44:38.398Z,63.02
2022-11-04T14:47:19.029Z,65.29
2022-11-04T14:49:49.419Z,67.74
2022-11-04T14:52:22.153Z,70.57
2022-11-04T14:54:56.728Z,72.22
2022-11-04T14:57:25.055Z,72.83
2022-11-04T14:59:53.795Z,73.91
2022-11-04T15:02:25.038Z,72.08
2022-11-04T15:04:56.850Z,71.27
2022-11-04T15:07:32.522Z,73.70
2022-11-04T15:10:03.110Z,71.52
2022-11-04T15:12:48.738Z,71.25
2022-11-04T15:15:32.966Z,71.78
2022-11-04T15:18:02.797Z,72.65
2022-11-04T15:20:37.447Z,72.91
2022-11-04T15:23:08.117Z,72.41
2022-11-04T15:25:38.044Z,72.17
2022-11-04T15:28:05.640Z,71.79
2022-11-04T15:30:33.198Z,70.74
2022-11-04T15:33:03.449Z,73.80
2022-11-04T15:35:33.130Z,74.69
2022-11-04T15:38:03.688Z,74.45
2022-11-04T15:40:42.777Z,74.60
2022-11-04T15:43:10.115Z,75.54
2022-11-04T15:45:39.980Z,77.53
2022-11-04T15:48:25.069Z,78.48
2022-11-04T15:51:02.922Z,79.70
2022-11-04T15:53:30.543Z,80.85
2022-11-04T15:56:00.899Z,82.41
2022-11-04T15:58:28.766Z,83.09
2022-11-04T16:00:57.344Z,84.87
2022-11-04T16:03:25.427Z,85.46
2022-11-04T16:06:04.431Z,86.52
2022-11-04T16:08:33.695Z,87.54
2022-11-04T16:11:15.094Z,87.58
2022-11-04T16:13:43.463Z,87.05
2022-11-04T16:16:24.117Z,88.17
2022-11-04T16:18:54.621Z,87.52
2022-11-04T16:21:26.022Z,87.93
2022-11-04T16:23:57.366Z,88.83
2022-11-04T16:26:29.903Z,89.83
2022-11-04T16:29:00.138Z,90.34
2022-11-04T16:31:32.991Z,91.85
2022-11-04T16:34:00.815Z,93.43
2022-11-04T16:36:34.090Z,91.59
2022-11-04T16:39:08.323Z,89.89
2022-11-04T16:41:39.452Z,88.95
2022-11-04T16:44:18.984Z,89.21
2022-11-04T16:46:46.916Z,90.10
2022-11-04T16:49:16.284Z,90.87
2022-11-04T16:51:44.310Z,90.95
2022-11-04T16:54:12.092Z,92.15
2022-11-04T16:56:41.121Z,92.56
2022-11-04T16:59:11.435Z,92.17
2022-11-04T17:01:39.771Z,90.65
2022-11-04T17:04:07.830Z,90.83
2022-11-04T17:06:36.335Z,91.52
2022-11-04T17:09:05.348Z,91.41
2022-11-04T17:11:32.878Z,91.57
2022-11-04T17:14:03.019Z,92.15
2022-11-04T17:16:30.663Z,93.12
2022-11-04T17:18:58.222Z,92.73
2022-11-04T17:21:26.235Z,93.05
2022-11-04T17:23:56.076Z,93.30
2022-11-04T17:26:23.685Z,94.22
2022-11-04T17:28:51.236Z,93.84
2022-11-04T17:31:20.910Z,93.82
2022-11-04T17:33:48.944Z,94.11
2022-11-04T17:36:19.794Z,95.23
2022-11-04T17:38:48.440Z,93.93
2022-11-04T17:41:33.510Z,93.35
2022-11-04T17:44:01.059Z,93.74
2022-11-04T17:46:37.869Z,94.43
2022-11-04T17:49:08.673Z,95.01
2022-11-04T17:51:37.078Z,95.08
2022-11-04T17:54:08.552Z,94.63
2022-11-04T17:56:36.495Z,94.73
2022-11-04T17:59:05.132Z,95.66
2022-11-04T18:01:35.495Z,95.65
2022-11-04T18:04:05.308Z,95.62
2022-11-04T18:06:34.868Z,95.84
2022-11-04T18:09:03.444Z,95.15
2022-11-04T18:11:49.058Z,95.69
2022-11-04T18:14:18.296Z,95.32
2022-11-04T18:16:49.653Z,95.46
2022-11-04T18:19:19.091Z,96.09
2022-11-04T18:21:47.264Z,96.29
2022-11-04T18:24:15.141Z,96.37
2022-11-04T18:26:43.036Z,96.53
2022-11-04T18:29:10.949Z,96.62
2022-11-04T18:31:44.673Z,96.60
2022-11-04T18:34:19.315Z,96.39
2022-11-04T18:36:47.886Z,96.73
2022-11-04T18:39:17.249Z,97.17
2022-11-04T18:41:45.572Z,97.50
2022-11-04T18:44:16.460Z,97.27
2022-11-04T18:46:44.585Z,97.26
2022-11-04T18:49:13.112Z,97.16
2022-11-04T18:51:42.942Z,96.78
2022-11-04T18:54:11.976Z,97.43
2022-11-04T18:56:39.531Z,98.07
2022-11-04T18:59:09.404Z,97.68
2022-11-04T19:01:37.698Z,97.61
2022-11-04T19:04:06.101Z,97.29
2022-11-04T19:06:35.988Z,96.51
2022-11-04T19:09:39.995Z,96.84
2022-11-04T19:12:09.644Z,96.28
2022-11-04T19:14:37.142Z,96.89
2022-11-04T19:17:04.744Z,97.46
2022-11-04T19:19:32.507Z,96.93
2022-11-04T19:22:00.106Z,97.38
2022-11-04T19:24:29.091Z,97.21
2022-11-04T19:26:57.063Z,96.78
2022-11-04T19:29:24.684Z,96.65
2022-11-04T19:31:52.441Z,96.61
2022-11-04T19:34:20.034Z,96.96
2022-11-04T19:36:47.617Z,97.35
2022-11-04T19:39:15.163Z,97.70
2022-11-04T19:42:02.061Z,97.72
2022-11-04T19:44:29.727Z,98.24
2022-11-04T19:46:57.327Z,98.45
2022-11-04T19:49:24.894Z,98.32
2022-11-04T19:51:52.497Z,98.82
2022-11-04T19:54:20.504Z,99.15
2022-11-04T19:56:49.418Z,99.40
2022-11-04T19:59:18.822Z,99.44
2022-11-04T20:01:46.446Z,99.48
2022-11-04T20:04:14.438Z,99.51
2022-11-04T20:06:42.051Z,98.92
2022-11-04T20:09:11.224Z,99.56
2022-11-04T20:12:00.087Z,99.38
2022-11-04T20:14:28.899Z,99.82
2022-11-04T20:16:56.890Z,100.00
2022-11-04T20:19:24.697Z,99.81
2022-11-04T20:21:52.294Z,99.79
2022-11-04T20:24:19.890Z,99.72
2022-11-04T20:26:47.531Z,99.30
2022-11-04T20:29:15.818Z,98.90
2022-11-04T20:31:45.203Z,99.88
2022-11-04T20:34:14.803Z,98.01
2022-11-04T20:36:43.145Z,96.16
2022-11-04T20:39:14.337Z,96.08
2022-11-04T20:41:42.225Z,95.81
2022-11-04T20:44:11.095Z,95.39
2022-11-04T20:46:39.413Z,94.93
2022-11-04T20:49:08.960Z,94.75
2022-11-04T20:51:41.535Z,93.85
2022-11-04T20:54:09.074Z,94.25
2022-11-04T20:56:39.013Z,94.85
2022-11-04T20:59:07.725Z,95.75
2022-11-04T21:01:38.462Z,96.46
2022-11-04T21:04:11.218Z,94.92
2022-11-04T21:06:40.030Z,94.55
2022-11-04T21:09:09.073Z,95.21
2022-11-04T21:11:38.894Z,94.59
2022-11-04T21:14:07.862Z,94.74
2022-11-04T21:16:36.016Z,94.67
2022-11-04T21:19:03.999Z,94.37
2022-11-04T21:21:33.153Z,95.53
2022-11-04T21:24:02.722Z,94.90
2022-11-04T21:26:32.131Z,95.00
2022-11-04T21:29:01.808Z,92.32
2022-11-04T21:31:30.690Z,92.28
2022-11-04T21:33:58.939Z,93.07
2022-11-04T21:36:27.154Z,93.16
2022-11-04T21:38:56.172Z,93.72
2022-11-04T21:41:25.820Z,93.90
2022-11-04T21:43:55.562Z,93.79
2022-11-04T21:46:25.324Z,94.27
2022-11-04T21:48:53.454Z,94.44
2022-11-04T21:51:22.781Z,93.19
2022-11-04T21:53:50.405Z,91.38
2022-11-04T21:56:21.538Z,91.34
2022-11-04T21:58:49.140Z,92.91
2022-11-04T22:01:18.735Z,93.20
2022-11-04T22:03:50.719Z,93.74
2022-11-04T22:06:18.363Z,94.75
2022-11-04T22:08:49.267Z,94.05
2022-11-04T22:11:21.534Z,93.83
2022-11-04T22:13:49.026Z,92.93
2022-11-04T22:16:19.200Z,92.84
2022-11-04T22:18:47.503Z,92.01
2022-11-04T22:21:17.491Z,93.30
2022-11-04T22:23:46.101Z,94.00
2022-11-04T22:26:15.727Z,93.35
2022-11-04T22:28:44.673Z,93.93
2022-11-04T22:31:14.018Z,94.16
2022-11-04T22:33:41.729Z,94.33
2022-11-04T22:36:10.373Z,93.97
2022-11-04T22:38:39.056Z,95.12
2022-11-04T22:41:08.837Z,95.01
2022-11-04T22:43:36.538Z,95.76
2022-11-04T22:46:08.919Z,95.20
2022-11-04T22:48:37.484Z,95.87
2022-11-04T22:51:06.727Z,96.19
2022-11-04T22:53:34.239Z,96.42
2022-11-04T22:56:02.866Z,96.46
2022-11-04T22:58:30.922Z,93.99
2022-11-04T23:01:00.210Z,94.44
2022-11-04T23:03:29.672Z,94.16
2022-11-04T23:05:57.834Z,93.58
2022-11-04T23:08:26.865Z,94.24
2022-11-04T23:11:15.051Z,93.67
2022-11-04T23:14:08.525Z,93.45
2022-11-04T23:16:53.767Z,93.43
2022-11-04T23:19:26.913Z,94.16
2022-11-04T23:22:15.214Z,94.57
2022-11-04T23:25:00.626Z,94.31
2022-11-04T23:27:45.813Z,94.21
2022-11-04T23:30:25.273Z,94.94
2022-11-04T23:32:54.549Z,95.05
2022-11-04T23:35:42.254Z,94.36
2022-11-04T23:38:09.889Z,94.06
2022-11-04T23:40:37.566Z,94.53
2022-11-04T23:43:04.259Z,93.95
2022-11-04T23:45:49.939Z,93.73
2022-11-04T23:48:35.185Z,94.55
2022-11-04T23:51:21.758Z,94.77
2022-11-04T23:54:07.115Z,94.91
2022-11-04T23:56:52.350Z,94.81
2022-11-04T23:59:37.690Z,94.76
